sensor_id;sensor_type;location;lat;lon;timestamp;P1;durP1;ratioP1;P2;durP2;ratioP2
13611;SDS011;6877;51.436;6.774;2023-04-30T00:00:31;21.02;;;12.20;;
13611;SDS011;6877;51.436;6.774;2023-04-30T00:03:02;14.95;;;10.25;;
13611;SDS011;6877;51.436;6.774;2023-04-30T00:05:29;19.23;;;10.45;;
13611;SDS011;6877;51.436;6.774;2023-04-30T00:07:55;16.98;;;9.98;;
13611;SDS011;6877;51.436;6.774;2023-04-30T00:10:27;22.38;;;12.32;;
13611;SDS011;6877;51.436;6.774;2023-04-30T00:12:53;19.30;;;11.98;;
13611;SDS011;6877;51.436;6.774;2023-04-30T00:15:20;20.13;;;11.27;;
13611;SDS011;6877;51.436;6.774;2023-04-30T00:17:46;16.55;;;11.10;;
13611;SDS011;6877;51.436;6.774;2023-04-30T00:20:12;20.10;;;11.35;;
13611;SDS011;6877;51.436;6.774;2023-04-30T00:22:44;20.52;;;11.13;;
13611;SDS011;6877;51.436;6.774;2023-04-30T00:25:10;16.75;;;11.05;;
13611;SDS011;6877;51.436;6.774;2023-04-30T00:27:36;20.50;;;11.80;;
13611;SDS011;6877;51.436;6.774;2023-04-30T00:30:03;23.83;;;12.07;;
13611;SDS011;6877;51.436;6.774;2023-04-30T00:32:35;16.38;;;10.90;;
13611;SDS011;6877;51.436;6.774;2023-04-30T00:35:01;23.75;;;12.50;;
13611;SDS011;6877;51.436;6.774;2023-04-30T00:37:33;17.90;;;11.00;;
13611;SDS011;6877;51.436;6.774;2023-04-30T00:40:04;20.88;;;12.27;;
13611;SDS011;6877;51.436;6.774;2023-04-30T00:42:36;19.52;;;11.13;;
13611;SDS011;6877;51.436;6.774;2023-04-30T00:45:08;24.20;;;11.35;;
13611;SDS011;6877;51.436;6.774;2023-04-30T00:47:39;20.35;;;12.50;;
13611;SDS011;6877;51.436;6.774;2023-04-30T00:50:06;18.52;;;11.48;;
13611;SDS011;6877;51.436;6.774;2023-04-30T00:52:37;20.45;;;11.27;;
13611;SDS011;6877;51.436;6.774;2023-04-30T00:55:04;18.38;;;11.77;;
13611;SDS011;6877;51.436;6.774;2023-04-30T00:57:31;18.30;;;10.65;;
13611;SDS011;6877;51.436;6.774;2023-04-30T00:59:59;17.92;;;11.38;;
13611;SDS011;6877;51.436;6.774;2023-04-30T01:02:25;21.73;;;11.55;;
13611;SDS011;6877;51.436;6.774;2023-04-30T01:04:52;19.08;;;11.23;;
13611;SDS011;6877;51.436;6.774;2023-04-30T01:07:19;18.65;;;12.57;;
13611;SDS011;6877;51.436;6.774;2023-04-30T01:09:50;17.17;;;10.68;;
13611;SDS011;6877;51.436;6.774;2023-04-30T01:18:05;18.73;;;12.60;;
13611;SDS011;6877;51.436;6.774;2023-04-30T01:20:36;17.10;;;11.63;;
13611;SDS011;6877;51.436;6.774;2023-04-30T01:26:13;18.90;;;10.98;;
13611;SDS011;6877;51.436;6.774;2023-04-30T01:28:50;17.85;;;11.75;;
13611;SDS011;6877;51.436;6.774;2023-04-30T01:31:26;19.58;;;10.63;;
13611;SDS011;6877;51.436;6.774;2023-04-30T01:33:53;18.77;;;11.07;;
13611;SDS011;6877;51.436;6.774;2023-04-30T01:46:41;18.27;;;12.25;;
13611;SDS011;6877;51.436;6.774;2023-04-30T01:49:26;22.90;;;12.07;;
13611;SDS011;6877;51.436;6.774;2023-04-30T01:52:01;28.02;;;13.65;;
13611;SDS011;6877;51.436;6.774;2023-04-30T01:54:59;21.55;;;11.65;;
13611;SDS011;6877;51.436;6.774;2023-04-30T01:57:35;25.85;;;13.10;;
13611;SDS011;6877;51.436;6.774;2023-04-30T02:00:04;24.52;;;13.55;;
13611;SDS011;6877;51.436;6.774;2023-04-30T02:02:35;23.45;;;14.15;;
13611;SDS011;6877;51.436;6.774;2023-04-30T02:05:02;18.13;;;11.55;;
13611;SDS011;6877;51.436;6.774;2023-04-30T02:07:40;22.13;;;11.75;;
13611;SDS011;6877;51.436;6.774;2023-04-30T02:10:15;19.75;;;11.95;;
13611;SDS011;6877;51.436;6.774;2023-04-30T02:12:42;24.90;;;13.18;;
13611;SDS011;6877;51.436;6.774;2023-04-30T02:15:09;21.55;;;12.27;;
13611;SDS011;6877;51.436;6.774;2023-04-30T02:17:41;21.15;;;13.23;;
13611;SDS011;6877;51.436;6.774;2023-04-30T02:20:07;21.45;;;12.32;;
13611;SDS011;6877;51.436;6.774;2023-04-30T02:22:39;24.65;;;12.65;;
13611;SDS011;6877;51.436;6.774;2023-04-30T02:25:06;21.20;;;11.93;;
13611;SDS011;6877;51.436;6.774;2023-04-30T02:27:33;20.13;;;12.88;;
13611;SDS011;6877;51.436;6.774;2023-04-30T02:29:59;19.30;;;12.25;;
13611;SDS011;6877;51.436;6.774;2023-04-30T02:32:26;21.48;;;13.10;;
13611;SDS011;6877;51.436;6.774;2023-04-30T02:34:57;20.75;;;11.77;;
13611;SDS011;6877;51.436;6.774;2023-04-30T02:37:23;20.20;;;11.68;;
13611;SDS011;6877;51.436;6.774;2023-04-30T02:39:50;21.98;;;13.55;;
13611;SDS011;6877;51.436;6.774;2023-04-30T02:42:18;33.67;;;17.50;;
13611;SDS011;6877;51.436;6.774;2023-04-30T02:44:45;26.77;;;15.88;;
13611;SDS011;6877;51.436;6.774;2023-04-30T02:47:11;35.17;;;18.17;;
13611;SDS011;6877;51.436;6.774;2023-04-30T02:49:42;48.70;;;26.13;;
13611;SDS011;6877;51.436;6.774;2023-04-30T02:52:09;54.72;;;27.35;;
13611;SDS011;6877;51.436;6.774;2023-04-30T02:54:40;56.58;;;32.35;;
13611;SDS011;6877;51.436;6.774;2023-04-30T02:57:12;62.15;;;33.13;;
13611;SDS011;6877;51.436;6.774;2023-04-30T02:59:39;61.28;;;31.67;;
13611;SDS011;6877;51.436;6.774;2023-04-30T03:02:05;51.53;;;29.52;;
13611;SDS011;6877;51.436;6.774;2023-04-30T03:04:37;52.22;;;28.20;;
13611;SDS011;6877;51.436;6.774;2023-04-30T03:07:08;38.47;;;23.05;;
13611;SDS011;6877;51.436;6.774;2023-04-30T03:09:35;32.78;;;19.23;;
13611;SDS011;6877;51.436;6.774;2023-04-30T03:12:06;31.85;;;18.33;;
13611;SDS011;6877;51.436;6.774;2023-04-30T03:14:37;34.13;;;18.38;;
13611;SDS011;6877;51.436;6.774;2023-04-30T03:17:04;29.42;;;17.48;;
13611;SDS011;6877;51.436;6.774;2023-04-30T03:19:35;33.90;;;18.00;;
13611;SDS011;6877;51.436;6.774;2023-04-30T03:22:02;27.40;;;16.77;;
13611;SDS011;6877;51.436;6.774;2023-04-30T03:24:28;28.45;;;16.00;;
13611;SDS011;6877;51.436;6.774;2023-04-30T03:26:55;25.45;;;15.88;;
13611;SDS011;6877;51.436;6.774;2023-04-30T03:29:21;23.65;;;15.60;;
13611;SDS011;6877;51.436;6.774;2023-04-30T03:31:52;27.38;;;16.25;;
13611;SDS011;6877;51.436;6.774;2023-04-30T03:34:19;27.65;;;14.98;;
13611;SDS011;6877;51.436;6.774;2023-04-30T03:36:46;27.33;;;16.83;;
13611;SDS011;6877;51.436;6.774;2023-04-30T03:39:13;30.77;;;17.15;;
13611;SDS011;6877;51.436;6.774;2023-04-30T03:41:41;30.75;;;15.95;;
13611;SDS011;6877;51.436;6.774;2023-04-30T03:44:07;30.00;;;17.05;;
13611;SDS011;6877;51.436;6.774;2023-04-30T03:46:40;33.00;;;17.02;;
13611;SDS011;6877;51.436;6.774;2023-04-30T03:49:08;27.65;;;17.85;;
13611;SDS011;6877;51.436;6.774;2023-04-30T03:51:35;32.05;;;16.40;;
13611;SDS011;6877;51.436;6.774;2023-04-30T03:54:05;29.95;;;17.52;;
13611;SDS011;6877;51.436;6.774;2023-04-30T03:56:31;29.73;;;16.15;;
13611;SDS011;6877;51.436;6.774;2023-04-30T03:59:04;29.83;;;18.33;;
13611;SDS011;6877;51.436;6.774;2023-04-30T04:01:31;33.70;;;19.52;;
13611;SDS011;6877;51.436;6.774;2023-04-30T04:03:57;27.35;;;16.48;;
13611;SDS011;6877;51.436;6.774;2023-04-30T04:06:24;26.20;;;16.30;;
13611;SDS011;6877;51.436;6.774;2023-04-30T04:08:51;25.58;;;15.52;;
13611;SDS011;6877;51.436;6.774;2023-04-30T04:11:18;36.03;;;16.88;;
13611;SDS011;6877;51.436;6.774;2023-04-30T04:13:45;27.08;;;17.25;;
13611;SDS011;6877;51.436;6.774;2023-04-30T04:16:11;29.77;;;16.75;;
13611;SDS011;6877;51.436;6.774;2023-04-30T04:18:37;30.00;;;18.25;;
13611;SDS011;6877;51.436;6.774;2023-04-30T04:21:09;28.35;;;17.92;;
13611;SDS011;6877;51.436;6.774;2023-04-30T04:23:35;29.83;;;17.35;;
13611;SDS011;6877;51.436;6.774;2023-04-30T04:26:02;31.73;;;18.25;;
13611;SDS011;6877;51.436;6.774;2023-04-30T04:28:28;29.77;;;18.05;;
13611;SDS011;6877;51.436;6.774;2023-04-30T04:30:55;34.03;;;19.08;;
13611;SDS011;6877;51.436;6.774;2023-04-30T04:33:21;30.15;;;17.30;;
13611;SDS011;6877;51.436;6.774;2023-04-30T04:35:47;36.20;;;21.77;;
13611;SDS011;6877;51.436;6.774;2023-04-30T04:38:14;37.72;;;22.95;;
13611;SDS011;6877;51.436;6.774;2023-04-30T04:40:44;36.05;;;21.95;;
13611;SDS011;6877;51.436;6.774;2023-04-30T04:43:16;38.85;;;24.38;;
13611;SDS011;6877;51.436;6.774;2023-04-30T04:45:42;41.67;;;26.88;;
13611;SDS011;6877;51.436;6.774;2023-04-30T04:48:09;33.40;;;20.30;;
13611;SDS011;6877;51.436;6.774;2023-04-30T04:50:40;38.88;;;20.77;;
13611;SDS011;6877;51.436;6.774;2023-04-30T04:53:11;28.67;;;17.88;;
13611;SDS011;6877;51.436;6.774;2023-04-30T04:55:39;31.30;;;19.17;;
13611;SDS011;6877;51.436;6.774;2023-04-30T04:58:05;31.15;;;19.05;;
13611;SDS011;6877;51.436;6.774;2023-04-30T05:00:31;30.65;;;18.13;;
13611;SDS011;6877;51.436;6.774;2023-04-30T05:03:03;33.75;;;17.55;;
13611;SDS011;6877;51.436;6.774;2023-04-30T05:05:30;26.60;;;17.30;;
13611;SDS011;6877;51.436;6.774;2023-04-30T05:08:01;24.63;;;17.10;;
13611;SDS011;6877;51.436;6.774;2023-04-30T05:10:27;30.17;;;16.02;;
13611;SDS011;6877;51.436;6.774;2023-04-30T05:12:54;26.33;;;16.10;;
13611;SDS011;6877;51.436;6.774;2023-04-30T05:15:20;26.90;;;14.75;;
13611;SDS011;6877;51.436;6.774;2023-04-30T05:17:47;27.80;;;15.63;;
13611;SDS011;6877;51.436;6.774;2023-04-30T05:20:13;24.20;;;14.25;;
13611;SDS011;6877;51.436;6.774;2023-04-30T05:22:45;22.25;;;14.57;;
13611;SDS011;6877;51.436;6.774;2023-04-30T05:25:11;24.70;;;14.23;;
13611;SDS011;6877;51.436;6.774;2023-04-30T05:27:37;18.90;;;12.57;;
13611;SDS011;6877;51.436;6.774;2023-04-30T05:30:09;20.95;;;13.20;;
13611;SDS011;6877;51.436;6.774;2023-04-30T05:32:36;21.63;;;13.40;;
13611;SDS011;6877;51.436;6.774;2023-04-30T05:35:07;21.20;;;13.23;;
13611;SDS011;6877;51.436;6.774;2023-04-30T05:37:34;21.52;;;12.60;;
13611;SDS011;6877;51.436;6.774;2023-04-30T05:40:01;18.30;;;11.77;;
13611;SDS011;6877;51.436;6.774;2023-04-30T05:42:27;22.67;;;12.75;;
13611;SDS011;6877;51.436;6.774;2023-04-30T05:44:53;21.73;;;12.65;;
13611;SDS011;6877;51.436;6.774;2023-04-30T05:47:20;20.70;;;11.93;;
13611;SDS011;6877;51.436;6.774;2023-04-30T05:49:47;16.30;;;9.55;;
13611;SDS011;6877;51.436;6.774;2023-04-30T05:52:13;17.10;;;11.85;;
13611;SDS011;6877;51.436;6.774;2023-04-30T05:54:47;17.40;;;9.05;;
13611;SDS011;6877;51.436;6.774;2023-04-30T05:57:21;14.20;;;9.68;;
13611;SDS011;6877;51.436;6.774;2023-04-30T05:59:53;16.13;;;9.35;;
13611;SDS011;6877;51.436;6.774;2023-04-30T06:02:19;13.98;;;8.32;;
13611;SDS011;6877;51.436;6.774;2023-04-30T06:04:51;17.33;;;9.50;;
13611;SDS011;6877;51.436;6.774;2023-04-30T06:07:22;14.57;;;10.10;;
13611;SDS011;6877;51.436;6.774;2023-04-30T06:09:48;15.80;;;10.43;;
13611;SDS011;6877;51.436;6.774;2023-04-30T06:12:15;15.88;;;10.18;;
13611;SDS011;6877;51.436;6.774;2023-04-30T06:14:46;18.48;;;11.02;;
13611;SDS011;6877;51.436;6.774;2023-04-30T06:17:12;14.48;;;9.55;;
13611;SDS011;6877;51.436;6.774;2023-04-30T06:19:40;14.20;;;9.85;;
13611;SDS011;6877;51.436;6.774;2023-04-30T06:22:07;14.25;;;10.73;;
13611;SDS011;6877;51.436;6.774;2023-04-30T06:24:38;16.98;;;10.32;;
13611;SDS011;6877;51.436;6.774;2023-04-30T06:27:10;15.27;;;9.32;;
13611;SDS011;6877;51.436;6.774;2023-04-30T06:29:36;16.95;;;11.15;;
13611;SDS011;6877;51.436;6.774;2023-04-30T06:32:03;14.00;;;9.23;;
13611;SDS011;6877;51.436;6.774;2023-04-30T06:34:29;16.38;;;10.38;;
13611;SDS011;6877;51.436;6.774;2023-04-30T06:36:56;13.90;;;9.77;;
13611;SDS011;6877;51.436;6.774;2023-04-30T06:39:27;18.13;;;10.38;;
13611;SDS011;6877;51.436;6.774;2023-04-30T06:41:59;20.55;;;10.70;;
13611;SDS011;6877;51.436;6.774;2023-04-30T06:44:26;17.35;;;10.27;;
13611;SDS011;6877;51.436;6.774;2023-04-30T06:46:52;16.88;;;9.93;;
13611;SDS011;6877;51.436;6.774;2023-04-30T06:49:19;18.50;;;9.35;;
13611;SDS011;6877;51.436;6.774;2023-04-30T06:51:45;17.90;;;10.07;;
13611;SDS011;6877;51.436;6.774;2023-04-30T06:54:12;16.67;;;10.02;;
13611;SDS011;6877;51.436;6.774;2023-04-30T06:56:44;14.88;;;9.65;;
13611;SDS011;6877;51.436;6.774;2023-04-30T06:59:10;15.20;;;9.07;;
13611;SDS011;6877;51.436;6.774;2023-04-30T07:01:37;16.27;;;8.98;;
13611;SDS011;6877;51.436;6.774;2023-04-30T07:04:03;18.88;;;10.30;;
13611;SDS011;6877;51.436;6.774;2023-04-30T07:06:35;15.40;;;9.45;;
13611;SDS011;6877;51.436;6.774;2023-04-30T07:09:06;13.82;;;9.70;;
13611;SDS011;6877;51.436;6.774;2023-04-30T07:11:37;11.82;;;8.15;;
13611;SDS011;6877;51.436;6.774;2023-04-30T07:14:09;16.75;;;8.50;;
13611;SDS011;6877;51.436;6.774;2023-04-30T07:16:36;14.82;;;8.77;;
13611;SDS011;6877;51.436;6.774;2023-04-30T07:19:02;12.57;;;9.20;;
13611;SDS011;6877;51.436;6.774;2023-04-30T07:21:29;11.98;;;9.13;;
13611;SDS011;6877;51.436;6.774;2023-04-30T07:23:57;17.15;;;8.15;;
13611;SDS011;6877;51.436;6.774;2023-04-30T07:26:24;16.02;;;10.10;;
13611;SDS011;6877;51.436;6.774;2023-04-30T07:28:51;18.23;;;8.95;;
13611;SDS011;6877;51.436;6.774;2023-04-30T07:31:20;12.95;;;8.75;;
13611;SDS011;6877;51.436;6.774;2023-04-30T07:33:46;11.23;;;8.35;;
13611;SDS011;6877;51.436;6.774;2023-04-30T07:36:15;13.43;;;8.70;;
13611;SDS011;6877;51.436;6.774;2023-04-30T07:38:42;10.10;;;7.50;;
13611;SDS011;6877;51.436;6.774;2023-04-30T07:41:09;13.50;;;9.10;;
13611;SDS011;6877;51.436;6.774;2023-04-30T07:43:50;11.70;;;8.07;;
13611;SDS011;6877;51.436;6.774;2023-04-30T07:46:16;13.82;;;9.10;;
13611;SDS011;6877;51.436;6.774;2023-04-30T07:48:57;11.50;;;7.20;;
13611;SDS011;6877;51.436;6.774;2023-04-30T07:51:24;12.88;;;8.52;;
13611;SDS011;6877;51.436;6.774;2023-04-30T07:54:05;11.20;;;7.63;;
13611;SDS011;6877;51.436;6.774;2023-04-30T07:56:31;14.73;;;8.35;;
13611;SDS011;6877;51.436;6.774;2023-04-30T07:59:12;12.27;;;7.82;;
13611;SDS011;6877;51.436;6.774;2023-04-30T08:01:39;9.93;;;5.57;;
13611;SDS011;6877;51.436;6.774;2023-04-30T08:04:20;7.95;;;5.53;;
13611;SDS011;6877;51.436;6.774;2023-04-30T08:06:46;8.15;;;5.70;;
13611;SDS011;6877;51.436;6.774;2023-04-30T08:09:20;10.18;;;6.43;;
13611;SDS011;6877;51.436;6.774;2023-04-30T08:11:46;5.93;;;4.57;;
13611;SDS011;6877;51.436;6.774;2023-04-30T08:14:20;9.05;;;5.53;;
13611;SDS011;6877;51.436;6.774;2023-04-30T08:16:51;5.45;;;4.22;;
13611;SDS011;6877;51.436;6.774;2023-04-30T08:19:18;10.13;;;6.25;;
13611;SDS011;6877;51.436;6.774;2023-04-30T08:21:47;6.22;;;5.22;;
13611;SDS011;6877;51.436;6.774;2023-04-30T08:24:13;5.97;;;4.63;;
13611;SDS011;6877;51.436;6.774;2023-04-30T08:26:45;8.20;;;5.32;;
13611;SDS011;6877;51.436;6.774;2023-04-30T08:29:11;9.05;;;4.88;;
13611;SDS011;6877;51.436;6.774;2023-04-30T08:31:37;6.95;;;5.43;;
13611;SDS011;6877;51.436;6.774;2023-04-30T08:34:04;4.95;;;4.25;;
13611;SDS011;6877;51.436;6.774;2023-04-30T08:36:30;4.93;;;3.63;;
13611;SDS011;6877;51.436;6.774;2023-04-30T08:38:57;5.57;;;4.57;;
13611;SDS011;6877;51.436;6.774;2023-04-30T08:41:31;5.40;;;4.72;;
13611;SDS011;6877;51.436;6.774;2023-04-30T08:44:01;6.28;;;4.75;;
13611;SDS011;6877;51.436;6.774;2023-04-30T08:46:30;8.93;;;4.90;;
13611;SDS011;6877;51.436;6.774;2023-04-30T08:49:00;6.70;;;4.43;;
13611;SDS011;6877;51.436;6.774;2023-04-30T08:51:27;7.68;;;4.07;;
13611;SDS011;6877;51.436;6.774;2023-04-30T08:53:56;6.38;;;4.07;;
13611;SDS011;6877;51.436;6.774;2023-04-30T08:56:23;6.78;;;3.60;;
13611;SDS011;6877;51.436;6.774;2023-04-30T08:58:50;6.80;;;4.82;;
13611;SDS011;6877;51.436;6.774;2023-04-30T09:01:17;4.90;;;4.28;;
13611;SDS011;6877;51.436;6.774;2023-04-30T09:03:44;7.22;;;4.13;;
13611;SDS011;6877;51.436;6.774;2023-04-30T09:06:16;4.63;;;3.10;;
13611;SDS011;6877;51.436;6.774;2023-04-30T09:08:46;3.17;;;2.88;;
13611;SDS011;6877;51.436;6.774;2023-04-30T09:11:24;7.40;;;4.78;;
13611;SDS011;6877;51.436;6.774;2023-04-30T09:13:59;5.57;;;4.53;;
13611;SDS011;6877;51.436;6.774;2023-04-30T09:16:27;6.30;;;3.35;;
13611;SDS011;6877;51.436;6.774;2023-04-30T09:18:58;6.05;;;3.28;;
13611;SDS011;6877;51.436;6.774;2023-04-30T09:21:31;3.63;;;2.05;;
13611;SDS011;6877;51.436;6.774;2023-04-30T09:24:00;2.72;;;2.42;;
13611;SDS011;6877;51.436;6.774;2023-04-30T09:26:31;6.30;;;3.03;;
13611;SDS011;6877;51.436;6.774;2023-04-30T09:29:05;3.47;;;2.58;;
13611;SDS011;6877;51.436;6.774;2023-04-30T09:31:35;5.28;;;3.17;;
13611;SDS011;6877;51.436;6.774;2023-04-30T09:34:08;3.55;;;2.55;;
13611;SDS011;6877;51.436;6.774;2023-04-30T09:36:34;3.72;;;2.78;;
13611;SDS011;6877;51.436;6.774;2023-04-30T09:39:07;3.83;;;2.13;;
13611;SDS011;6877;51.436;6.774;2023-04-30T09:41:36;6.50;;;3.67;;
13611;SDS011;6877;51.436;6.774;2023-04-30T09:44:08;4.63;;;3.13;;
13611;SDS011;6877;51.436;6.774;2023-04-30T09:46:57;4.18;;;3.17;;
13611;SDS011;6877;51.436;6.774;2023-04-30T09:49:24;3.40;;;2.67;;
13611;SDS011;6877;51.436;6.774;2023-04-30T09:51:55;6.18;;;3.45;;
13611;SDS011;6877;51.436;6.774;2023-04-30T09:54:31;6.03;;;3.67;;
13611;SDS011;6877;51.436;6.774;2023-04-30T09:57:02;4.80;;;3.53;;
13611;SDS011;6877;51.436;6.774;2023-04-30T09:59:30;6.18;;;3.42;;
13611;SDS011;6877;51.436;6.774;2023-04-30T10:02:01;6.65;;;2.95;;
13611;SDS011;6877;51.436;6.774;2023-04-30T10:04:33;6.05;;;2.58;;
13611;SDS011;6877;51.436;6.774;2023-04-30T10:07:05;2.88;;;2.50;;
13611;SDS011;6877;51.436;6.774;2023-04-30T10:09:47;4.85;;;3.35;;
13611;SDS011;6877;51.436;6.774;2023-04-30T10:12:45;5.10;;;2.70;;
13611;SDS011;6877;51.436;6.774;2023-04-30T10:20:30;3.83;;;2.33;;
13611;SDS011;6877;51.436;6.774;2023-04-30T10:23:01;2.45;;;2.03;;
13611;SDS011;6877;51.436;6.774;2023-04-30T10:25:33;2.03;;;1.80;;
13611;SDS011;6877;51.436;6.774;2023-04-30T10:28:00;2.20;;;1.98;;
13611;SDS011;6877;51.436;6.774;2023-04-30T10:30:27;4.63;;;2.97;;
13611;SDS011;6877;51.436;6.774;2023-04-30T10:35:45;2.70;;;2.08;;
13611;SDS011;6877;51.436;6.774;2023-04-30T10:40:55;4.13;;;2.00;;
13611;SDS011;6877;51.436;6.774;2023-04-30T10:43:29;4.32;;;2.30;;
13611;SDS011;6877;51.436;6.774;2023-04-30T10:46:01;3.72;;;2.65;;
13611;SDS011;6877;51.436;6.774;2023-04-30T10:48:27;2.92;;;2.22;;
13611;SDS011;6877;51.436;6.774;2023-04-30T10:51:01;2.75;;;1.85;;
13611;SDS011;6877;51.436;6.774;2023-04-30T10:53:30;2.88;;;2.28;;
13611;SDS011;6877;51.436;6.774;2023-04-30T10:55:58;3.65;;;3.20;;
13611;SDS011;6877;51.436;6.774;2023-04-30T10:58:29;3.28;;;2.58;;
13611;SDS011;6877;51.436;6.774;2023-04-30T11:01:06;3.45;;;2.60;;
13611;SDS011;6877;51.436;6.774;2023-04-30T11:03:40;3.20;;;2.65;;
13611;SDS011;6877;51.436;6.774;2023-04-30T11:06:13;5.70;;;3.80;;
13611;SDS011;6877;51.436;6.774;2023-04-30T11:08:44;4.22;;;2.70;;
13611;SDS011;6877;51.436;6.774;2023-04-30T11:11:17;4.88;;;3.35;;
13611;SDS011;6877;51.436;6.774;2023-04-30T11:13:46;2.88;;;2.30;;
13611;SDS011;6877;51.436;6.774;2023-04-30T11:16:29;4.65;;;2.88;;
13611;SDS011;6877;51.436;6.774;2023-04-30T11:19:04;4.32;;;3.38;;
13611;SDS011;6877;51.436;6.774;2023-04-30T11:27:24;6.78;;;3.85;;
13611;SDS011;6877;51.436;6.774;2023-04-30T11:29:52;7.72;;;3.17;;
13611;SDS011;6877;51.436;6.774;2023-04-30T11:32:25;4.80;;;2.90;;
13611;SDS011;6877;51.436;6.774;2023-04-30T11:34:58;6.10;;;3.13;;
13611;SDS011;6877;51.436;6.774;2023-04-30T11:37:29;6.97;;;3.08;;
13611;SDS011;6877;51.436;6.774;2023-04-30T11:40:04;5.47;;;4.28;;
13611;SDS011;6877;51.436;6.774;2023-04-30T11:42:33;5.68;;;3.67;;
13611;SDS011;6877;51.436;6.774;2023-04-30T11:50:22;5.60;;;3.78;;
13611;SDS011;6877;51.436;6.774;2023-04-30T11:52:59;4.93;;;3.22;;
13611;SDS011;6877;51.436;6.774;2023-04-30T11:55:35;4.95;;;3.03;;
13611;SDS011;6877;51.436;6.774;2023-04-30T11:58:01;5.07;;;3.53;;
13611;SDS011;6877;51.436;6.774;2023-04-30T12:00:33;3.03;;;2.33;;
13611;SDS011;6877;51.436;6.774;2023-04-30T12:03:00;5.15;;;3.67;;
13611;SDS011;6877;51.436;6.774;2023-04-30T12:05:28;3.92;;;2.97;;
13611;SDS011;6877;51.436;6.774;2023-04-30T12:07:59;4.50;;;3.38;;
13611;SDS011;6877;51.436;6.774;2023-04-30T12:10:30;3.03;;;2.47;;
13611;SDS011;6877;51.436;6.774;2023-04-30T12:13:02;3.33;;;2.75;;
13611;SDS011;6877;51.436;6.774;2023-04-30T12:15:28;4.20;;;2.60;;
13611;SDS011;6877;51.436;6.774;2023-04-30T12:17:55;6.32;;;2.95;;
13611;SDS011;6877;51.436;6.774;2023-04-30T12:20:24;3.85;;;2.92;;
13611;SDS011;6877;51.436;6.774;2023-04-30T12:22:53;5.30;;;2.83;;
13611;SDS011;6877;51.436;6.774;2023-04-30T12:25:20;4.60;;;2.85;;
13611;SDS011;6877;51.436;6.774;2023-04-30T12:27:48;5.80;;;3.20;;
13611;SDS011;6877;51.436;6.774;2023-04-30T12:30:20;7.07;;;3.45;;
13611;SDS011;6877;51.436;6.774;2023-04-30T12:32:49;5.25;;;3.70;;
13611;SDS011;6877;51.436;6.774;2023-04-30T12:35:18;3.00;;;2.70;;
13611;SDS011;6877;51.436;6.774;2023-04-30T12:37:49;4.22;;;2.97;;
13611;SDS011;6877;51.436;6.774;2023-04-30T12:40:25;5.65;;;2.95;;
13611;SDS011;6877;51.436;6.774;2023-04-30T12:42:58;4.03;;;2.53;;
13611;SDS011;6877;51.436;6.774;2023-04-30T12:45:41;2.70;;;2.42;;
13611;SDS011;6877;51.436;6.774;2023-04-30T12:48:07;4.05;;;2.47;;
13611;SDS011;6877;51.436;6.774;2023-04-30T12:50:34;3.45;;;2.50;;
13611;SDS011;6877;51.436;6.774;2023-04-30T12:53:03;2.38;;;2.15;;
13611;SDS011;6877;51.436;6.774;2023-04-30T12:55:31;6.10;;;3.10;;
13611;SDS011;6877;51.436;6.774;2023-04-30T12:58:07;6.93;;;2.97;;
13611;SDS011;6877;51.436;6.774;2023-04-30T13:00:48;4.07;;;2.45;;
13611;SDS011;6877;51.436;6.774;2023-04-30T13:03:19;3.60;;;2.85;;
13611;SDS011;6877;51.436;6.774;2023-04-30T13:05:51;4.80;;;2.38;;
13611;SDS011;6877;51.436;6.774;2023-04-30T13:08:22;3.83;;;2.47;;
13611;SDS011;6877;51.436;6.774;2023-04-30T13:10:49;3.22;;;2.30;;
13611;SDS011;6877;51.436;6.774;2023-04-30T13:13:16;3.53;;;2.67;;
13611;SDS011;6877;51.436;6.774;2023-04-30T13:15:50;5.10;;;2.75;;
13611;SDS011;6877;51.436;6.774;2023-04-30T13:18:17;7.65;;;3.15;;
13611;SDS011;6877;51.436;6.774;2023-04-30T13:20:43;4.30;;;2.83;;
13611;SDS011;6877;51.436;6.774;2023-04-30T13:23:10;3.47;;;3.05;;
13611;SDS011;6877;51.436;6.774;2023-04-30T13:25:37;4.07;;;2.75;;
13611;SDS011;6877;51.436;6.774;2023-04-30T13:28:04;3.83;;;3.28;;
13611;SDS011;6877;51.436;6.774;2023-04-30T13:30:31;4.88;;;3.38;;
13611;SDS011;6877;51.436;6.774;2023-04-30T13:33:02;3.95;;;2.78;;
13611;SDS011;6877;51.436;6.774;2023-04-30T13:35:34;3.25;;;2.67;;
13611;SDS011;6877;51.436;6.774;2023-04-30T13:38:00;4.00;;;3.45;;
13611;SDS011;6877;51.436;6.774;2023-04-30T13:40:27;5.32;;;3.28;;
13611;SDS011;6877;51.436;6.774;2023-04-30T13:42:54;4.68;;;3.00;;
13611;SDS011;6877;51.436;6.774;2023-04-30T13:45:20;5.90;;;2.92;;
13611;SDS011;6877;51.436;6.774;2023-04-30T13:47:47;4.05;;;3.40;;
13611;SDS011;6877;51.436;6.774;2023-04-30T13:50:21;9.60;;;3.03;;
13611;SDS011;6877;51.436;6.774;2023-04-30T13:52:51;6.57;;;3.20;;
13611;SDS011;6877;51.436;6.774;2023-04-30T13:55:18;4.32;;;2.70;;
13611;SDS011;6877;51.436;6.774;2023-04-30T13:57:44;4.05;;;3.00;;
13611;SDS011;6877;51.436;6.774;2023-04-30T14:00:11;5.63;;;3.25;;
13611;SDS011;6877;51.436;6.774;2023-04-30T14:02:38;3.28;;;2.55;;
13611;SDS011;6877;51.436;6.774;2023-04-30T14:05:05;3.05;;;2.72;;
13611;SDS011;6877;51.436;6.774;2023-04-30T14:07:31;3.70;;;2.40;;
13611;SDS011;6877;51.436;6.774;2023-04-30T14:09:58;3.75;;;3.13;;
13611;SDS011;6877;51.436;6.774;2023-04-30T14:12:27;4.32;;;3.05;;
13611;SDS011;6877;51.436;6.774;2023-04-30T14:14:55;5.18;;;2.63;;
13611;SDS011;6877;51.436;6.774;2023-04-30T14:17:23;4.60;;;2.78;;
13611;SDS011;6877;51.436;6.774;2023-04-30T14:19:50;3.83;;;2.38;;
13611;SDS011;6877;51.436;6.774;2023-04-30T14:22:17;5.40;;;2.67;;
13611;SDS011;6877;51.436;6.774;2023-04-30T14:24:43;3.15;;;2.83;;
13611;SDS011;6877;51.436;6.774;2023-04-30T14:27:10;2.95;;;2.65;;
13611;SDS011;6877;51.436;6.774;2023-04-30T14:29:37;4.65;;;2.60;;
13611;SDS011;6877;51.436;6.774;2023-04-30T14:34:31;3.47;;;2.08;;
13611;SDS011;6877;51.436;6.774;2023-04-30T14:36:58;3.65;;;2.35;;
13611;SDS011;6877;51.436;6.774;2023-04-30T14:39:26;2.30;;;2.08;;
13611;SDS011;6877;51.436;6.774;2023-04-30T14:41:58;9.23;;;1.92;;
13611;SDS011;6877;51.436;6.774;2023-04-30T14:44:24;4.53;;;2.30;;
13611;SDS011;6877;51.436;6.774;2023-04-30T14:46:56;3.05;;;2.30;;
13611;SDS011;6877;51.436;6.774;2023-04-30T14:49:28;7.80;;;2.60;;
13611;SDS011;6877;51.436;6.774;2023-04-30T14:51:59;5.35;;;2.88;;
13611;SDS011;6877;51.436;6.774;2023-04-30T14:54:26;4.72;;;3.00;;
13611;SDS011;6877;51.436;6.774;2023-04-30T14:56:57;5.75;;;3.20;;
13611;SDS011;6877;51.436;6.774;2023-04-30T14:59:28;4.47;;;2.85;;
13611;SDS011;6877;51.436;6.774;2023-04-30T15:02:00;2.90;;;2.47;;
13611;SDS011;6877;51.436;6.774;2023-04-30T15:04:31;4.75;;;2.58;;
13611;SDS011;6877;51.436;6.774;2023-04-30T15:07:03;5.28;;;2.65;;
13611;SDS011;6877;51.436;6.774;2023-04-30T15:09:29;3.35;;;2.47;;
13611;SDS011;6877;51.436;6.774;2023-04-30T15:11:56;3.83;;;2.92;;
13611;SDS011;6877;51.436;6.774;2023-04-30T15:14:27;4.72;;;2.63;;
13611;SDS011;6877;51.436;6.774;2023-04-30T15:16:54;4.93;;;2.50;;
13611;SDS011;6877;51.436;6.774;2023-04-30T15:19:21;5.82;;;2.83;;
13611;SDS011;6877;51.436;6.774;2023-04-30T15:21:53;2.97;;;2.35;;
13611;SDS011;6877;51.436;6.774;2023-04-30T15:24:19;3.67;;;2.55;;
13611;SDS011;6877;51.436;6.774;2023-04-30T15:26:51;3.25;;;2.90;;
13611;SDS011;6877;51.436;6.774;2023-04-30T15:29:24;3.47;;;2.70;;
13611;SDS011;6877;51.436;6.774;2023-04-30T15:31:55;3.35;;;3.05;;
13611;SDS011;6877;51.436;6.774;2023-04-30T15:34:29;2.50;;;2.30;;
13611;SDS011;6877;51.436;6.774;2023-04-30T15:36:55;4.03;;;2.50;;
13611;SDS011;6877;51.436;6.774;2023-04-30T15:39:28;3.90;;;2.47;;
13611;SDS011;6877;51.436;6.774;2023-04-30T15:41:55;4.85;;;2.88;;
13611;SDS011;6877;51.436;6.774;2023-04-30T15:44:21;3.88;;;2.38;;